Time;durP1;ratioP1;P1;durP2;ratioP2;P2;SDS_P1;SDS_P2;PMS_P1;PMS_P2;Temp;Humidity;BMP_temperature;BMP_pressure;BME280_temperature;BME280_humidity;BME280_pressure;Samples;Min_cycle;Max_cycle;Signal;HPM_P1;HPM_P2
2023/08/07 00:00:04;;;;;;;5.22;3.58;;;;;;;15.13;84.25;97937.41;5011954;28;20123;-86
2023/08/07 00:02:29;;;;;;;3.65;2.88;;;;;;;15.19;84.58;97936.22;5024603;28;20056;-85
2023/08/07 00:04:54;;;;;;;5.28;3.05;;;;;;;15.28;83.50;97939.78;5021703;28;20045;-84
2023/08/07 00:07:20;;;;;;;2.72;2.47;;;;;;;15.17;83.85;97947.28;5020365;28;20059;-86
2023/08/07 00:09:45;;;;;;;5.10;3.20;;;;;;;15.26;84.40;97958.13;5004272;28;20038;-85
2023/08/07 00:12:11;;;;;;;6.13;3.47;;;;;;;15.21;84.09;97934.81;5007793;28;20037;-85
2023/08/07 00:14:36;;;;;;;4.07;3.67;;;;;;;15.16;84.56;97961.03;5026339;28;20061;-84
2023/08/07 00:17:02;;;;;;;5.70;3.22;;;;;;;15.15;84.15;97960.22;5022638;28;20441;-85
2023/08/07 00:19:27;;;;;;;5.70;3.13;;;;;;;15.03;85.28;97968.78;5008045;28;20132;-85
2023/08/07 00:21:53;;;;;;;4.60;3.30;;;;;;;15.07;84.54;97960.13;5020674;28;20091;-84
2023/08/07 00:24:18;;;;;;;4.45;3.70;;;;;;;14.84;84.95;97954.63;5005845;28;20517;-84
2023/08/07 00:26:43;;;;;;;5.07;3.30;;;;;;;15.06;84.82;97974.63;5020972;28;20485;-84
2023/08/07 00:29:09;;;;;;;7.78;3.30;;;;;;;14.99;85.04;97969.66;5010146;28;20061;-84
2023/08/07 00:31:34;;;;;;;3.95;3.22;;;;;;;15.20;84.38;97989.66;5039057;28;20049;-84
2023/08/07 00:34:00;;;;;;;5.93;3.33;;;;;;;14.91;85.22;97984.59;5023412;28;20021;-84
2023/08/07 00:36:28;;;;;;;3.92;2.97;;;;;;;15.00;84.83;97985.47;5026670;28;20115;-84
2023/08/07 00:38:53;;;;;;;3.50;3.20;;;;;;;15.05;85.00;97978.44;5001770;28;20033;-85
2023/08/07 00:41:19;;;;;;;4.80;3.05;;;;;;;14.92;84.80;97955.81;5020899;28;20029;-84
2023/08/07 00:43:45;;;;;;;8.73;3.42;;;;;;;15.00;85.21;97982.03;5023735;28;20040;-84
2023/08/07 00:46:10;;;;;;;8.70;2.83;;;;;;;15.27;83.86;97991.97;4988808;28;20470;-83
2023/08/07 00:48:36;;;;;;;5.07;2.95;;;;;;;15.11;84.75;97978.03;5010235;28;20114;-84
2023/08/07 00:51:03;;;;;;;11.95;3.90;;;;;;;15.11;84.98;97996.84;5008245;28;20371;-84
2023/08/07 00:53:28;;;;;;;4.88;2.70;;;;;;;15.23;83.88;97980.22;5027181;28;20374;-84
2023/08/07 00:55:54;;;;;;;6.10;3.42;;;;;;;14.84;84.59;97981.50;5023119;28;20037;-83
2023/08/07 00:58:19;;;;;;;5.25;2.75;;;;;;;14.97;85.06;97999.53;5004667;28;20044;-84
2023/08/07 01:00:45;;;;;;;4.03;3.17;;;;;;;14.79;85.56;97995.00;5023885;28;20035;-83
2023/08/07 01:03:13;;;;;;;5.80;2.80;;;;;;;15.03;84.60;97995.66;5025288;28;20406;-83
2023/08/07 01:05:39;;;;;;;4.28;2.70;;;;;;;15.14;84.46;97988.19;5007520;28;20647;-83
2023/08/07 01:08:05;;;;;;;4.32;2.60;;;;;;;15.06;84.10;98009.59;5006039;28;20079;-83
2023/08/07 01:11:07;;;;;;;7.07;2.40;;;;;;;14.80;84.66;97983.19;5033962;28;20033;-84
2023/08/07 01:14:03;;;;;;;3.75;2.33;;;;;;;15.07;84.98;98005.81;5034870;28;20547;-83
2023/08/07 01:16:35;;;;;;;4.13;2.53;;;;;;;14.94;85.32;97991.25;5017116;28;20088;-84
2023/08/07 01:19:03;;;;;;;7.43;2.25;;;;;;;14.86;84.95;97981.19;5024812;28;20057;-84
2023/08/07 01:21:28;;;;;;;4.65;2.65;;;;;;;14.79;85.97;98002.28;5019774;28;20065;-82
2023/08/07 01:23:53;;;;;;;7.07;3.00;;;;;;;14.45;85.99;98005.28;5020442;28;20060;-83
2023/08/07 01:26:20;;;;;;;2.83;2.40;;;;;;;14.60;85.96;97988.91;5019701;28;20108;-83
2023/08/07 01:29:12;;;;;;;9.88;2.63;;;;;;;14.91;84.96;98003.41;5004945;28;20128;-83
2023/08/07 01:31:41;;;;;;;5.25;2.90;;;;;;;14.70;85.47;97988.72;5023921;28;20516;-83
2023/08/07 01:34:10;;;;;;;5.00;3.05;;;;;;;14.92;85.01;98004.19;5006947;28;20033;-83
2023/08/07 01:36:39;;;;;;;4.78;3.10;;;;;;;14.91;84.17;97986.47;5037910;28;20416;-83
2023/08/07 01:39:06;;;;;;;2.42;2.20;;;;;;;14.80;84.71;97982.38;5017969;28;20033;-83
2023/08/07 01:41:33;;;;;;;6.43;3.45;;;;;;;14.65;85.40;97986.16;5008185;28;20025;-83
2023/08/07 01:43:58;;;;;;;7.72;2.80;;;;;;;14.75;85.46;97991.34;5023026;28;20041;-83
2023/08/07 01:46:24;;;;;;;3.53;2.72;;;;;;;14.82;85.16;98001.69;5022548;28;20033;-83
2023/08/07 01:48:49;;;;;;;9.18;3.10;;;;;;;14.82;84.59;98004.38;5037632;28;20044;-84
2023/08/07 01:51:15;;;;;;;4.53;2.95;;;;;;;14.83;84.12;97987.19;5019546;28;20027;-83
2023/08/07 01:53:40;;;;;;;3.38;2.22;;;;;;;14.90;84.09;97991.06;5008435;28;20112;-83
2023/08/07 01:56:05;;;;;;;3.50;2.50;;;;;;;14.88;84.30;97995.13;5022192;28;20106;-83
2023/08/07 01:58:31;;;;;;;2.70;2.13;;;;;;;14.97;84.13;97990.66;5025772;28;20044;-83
2023/08/07 02:00:56;;;;;;;3.53;2.05;;;;;;;14.80;84.80;97993.94;5008952;28;20075;-83
2023/08/07 02:03:21;;;;;;;4.63;2.30;;;;;;;14.45;85.45;97985.69;5009877;28;20107;-84
2023/08/07 02:05:47;;;;;;;5.85;2.92;;;;;;;14.74;85.03;97997.00;5041155;28;20045;-83
2023/08/07 02:08:12;;;;;;;3.55;1.95;;;;;;;14.89;83.90;98002.91;5027898;28;20036;-83
2023/08/07 02:10:38;;;;;;;5.57;2.65;;;;;;;14.90;84.43;97999.13;5028876;28;20060;-83
2023/08/07 02:13:03;;;;;;;5.35;2.50;;;;;;;14.84;84.49;98005.69;5027063;28;20100;-83
2023/08/07 02:15:28;;;;;;;3.13;2.10;;;;;;;14.75;85.06;98012.03;5024490;28;20029;-83
2023/08/07 02:17:54;;;;;;;5.28;1.70;;;;;;;14.87;84.67;98010.44;5027292;28;20044;-83
2023/08/07 02:20:19;;;;;;;3.60;2.22;;;;;;;14.84;84.49;98011.06;5024317;28;20444;-83
2023/08/07 02:22:45;;;;;;;4.40;2.10;;;;;;;14.80;84.27;98001.19;5024538;28;20045;-83
2023/08/07 02:25:10;;;;;;;2.70;1.92;;;;;;;14.87;84.29;97994.31;5025151;28;20029;-83
2023/08/07 02:27:35;;;;;;;6.68;1.80;;;;;;;14.68;84.87;98009.72;5030527;28;20183;-83
2023/08/07 02:30:03;;;;;;;2.78;1.73;;;;;;;14.73;84.12;97993.53;5024494;28;20357;-83
2023/08/07 02:32:28;;;;;;;3.53;2.15;;;;;;;14.64;84.70;98003.34;5010485;28;20059;-83
2023/08/07 02:34:54;;;;;;;4.70;1.90;;;;;;;14.91;83.57;98011.47;5026614;28;20557;-83
2023/08/07 02:37:20;;;;;;;4.68;1.95;;;;;;;14.84;84.56;98015.63;5008925;28;20048;-83
2023/08/07 02:39:46;;;;;;;2.25;1.88;;;;;;;14.83;83.46;98006.00;5025607;28;20034;-83
2023/08/07 02:42:11;;;;;;;2.42;1.60;;;;;;;14.95;83.54;98025.09;5025930;28;20033;-83
2023/08/07 02:44:37;;;;;;;1.90;1.63;;;;;;;14.63;84.35;98009.81;5029338;28;20107;-82
2023/08/07 02:47:02;;;;;;;3.30;1.48;;;;;;;14.84;83.46;98002.19;5028227;28;20056;-82
2023/08/07 02:49:28;;;;;;;6.25;2.15;;;;;;;14.94;83.49;98008.19;5024679;28;21925;-83
2023/08/07 02:51:53;;;;;;;5.20;1.52;;;;;;;14.92;83.38;98012.25;5023109;28;20044;-83
2023/08/07 02:54:18;;;;;;;3.38;1.40;;;;;;;14.84;83.91;98021.81;5025863;28;20065;-84
2023/08/07 02:56:44;;;;;;;2.55;1.27;;;;;;;14.95;83.80;98019.72;5025503;28;20026;-83
2023/08/07 02:59:09;;;;;;;2.25;0.90;;;;;;;14.82;84.05;98004.38;5028665;28;20355;-82
2023/08/07 03:01:34;;;;;;;1.38;1.08;;;;;;;14.80;83.98;98002.00;5025828;28;20253;-83
2023/08/07 03:04:00;;;;;;;1.27;0.73;;;;;;;14.84;83.88;98015.63;4992220;28;20042;-83
2023/08/07 03:06:25;;;;;;;3.08;1.15;;;;;;;14.87;83.90;98015.81;5009251;28;20025;-82
2023/08/07 03:08:50;;;;;;;0.70;0.70;;;;;;;14.61;84.19;97989.72;5005264;28;20508;-83
2023/08/07 03:11:16;;;;;;;2.78;0.70;;;;;;;14.77;83.94;97999.09;5024088;28;20022;-83
2023/08/07 03:13:42;;;;;;;0.80;0.80;;;;;;;14.71;84.47;98001.09;5023780;28;20034;-83
2023/08/07 03:16:08;;;;;;;4.20;0.73;;;;;;;14.67;84.58;98005.44;5004902;28;20449;-83
2023/08/07 03:18:33;;;;;;;2.03;1.10;;;;;;;14.65;84.64;98023.75;5024979;28;20074;-83
2023/08/07 03:20:59;;;;;;;1.40;0.93;;;;;;;14.58;84.88;98011.78;5024370;28;20071;-83
2023/08/07 03:23:26;;;;;;;0.73;0.65;;;;;;;14.72;84.23;98012.63;5022108;28;20018;-83
2023/08/07 03:26:05;;;;;;;2.28;0.82;;;;;;;14.67;84.47;98018.88;5021431;28;20040;-83
2023/08/07 03:28:32;;;;;;;2.53;1.02;;;;;;;14.82;84.10;98020.50;5026158;28;20029;-83
2023/08/07 03:30:57;;;;;;;4.28;1.23;;;;;;;14.60;84.76;98010.41;5026858;28;20846;-84
2023/08/07 03:33:23;;;;;;;1.27;0.75;;;;;;;14.60;84.90;98023.03;4990606;28;20029;-83
2023/08/07 03:35:48;;;;;;;0.98;0.90;;;;;;;14.74;83.87;98021.97;5022172;28;20036;-83
2023/08/07 03:38:14;;;;;;;0.63;0.63;;;;;;;14.53;84.54;98015.34;5031185;28;20104;-84
2023/08/07 03:40:39;;;;;;;1.50;1.20;;;;;;;14.56;84.10;98011.28;5028654;28;20041;-84
2023/08/07 03:43:04;;;;;;;3.17;1.17;;;;;;;14.58;84.51;98036.75;5014617;28;20084;-82
2023/08/07 03:45:30;;;;;;;1.83;1.05;;;;;;;14.49;84.34;98035.03;5012252;28;20029;-83
2023/08/07 03:47:55;;;;;;;2.63;1.42;;;;;;;14.33;84.72;98018.34;5028612;28;20045;-84
2023/08/07 03:50:20;;;;;;;1.25;0.80;;;;;;;14.58;83.94;98023.31;5012792;28;20033;-83
2023/08/07 03:52:46;;;;;;;0.90;0.90;;;;;;;14.50;84.13;98036.63;5013549;28;20033;-83
2023/08/07 03:55:11;;;;;;;1.02;1.02;;;;;;;14.62;83.87;98037.75;5029127;28;20041;-83
2023/08/07 03:57:36;;;;;;;0.95;0.95;;;;;;;14.52;84.04;98029.88;5027981;28;20041;-83
2023/08/07 04:00:02;;;;;;;1.17;1.00;;;;;;;14.61;83.81;98038.06;5006078;28;20029;-83
2023/08/07 04:02:29;;;;;;;1.02;0.88;;;;;;;14.33;84.78;98039.84;5024536;28;20034;-83
2023/08/07 04:04:54;;;;;;;2.60;0.95;;;;;;;14.64;84.31;98049.00;5013102;28;20060;-83
2023/08/07 04:07:19;;;;;;;0.80;0.80;;;;;;;14.58;84.26;98044.00;5026733;28;20813;-84
2023/08/07 04:09:45;;;;;;;1.23;0.88;;;;;;;14.61;84.49;98049.59;5004147;28;20031;-82
2023/08/07 04:12:10;;;;;;;1.40;1.30;;;;;;;14.58;84.33;98050.19;5006491;28;20128;-83
2023/08/07 04:14:35;;;;;;;0.93;0.88;;;;;;;14.59;84.92;98057.13;5007580;28;20033;-83
2023/08/07 04:17:01;;;;;;;1.90;0.80;;;;;;;14.58;84.46;98052.88;5023559;28;20025;-83
2023/08/07 04:19:26;;;;;;;1.02;0.95;;;;;;;14.64;83.96;98034.78;5025653;28;20133;-83
2023/08/07 04:21:52;;;;;;;0.80;0.80;;;;;;;14.69;84.68;98057.00;5010984;28;20037;-83
2023/08/07 04:24:17;;;;;;;1.48;1.05;;;;;;;14.46;84.56;98041.00;5008751;28;20037;-83
2023/08/07 04:26:42;;;;;;;0.95;0.88;;;;;;;14.52;84.99;98037.94;5029935;28;20025;-83
2023/08/07 04:29:08;;;;;;;2.60;1.00;;;;;;;14.40;84.85;98037.59;4993109;28;20028;-83
2023/08/07 04:31:33;;;;;;;1.83;1.30;;;;;;;14.19;85.27;98041.63;4991490;28;20053;-82
2023/08/07 04:33:59;;;;;;;1.95;1.10;;;;;;;14.42;84.51;98048.81;5014095;28;20129;-84
2023/08/07 04:36:24;;;;;;;0.80;0.80;;;;;;;14.48;84.71;98050.31;5025071;28;20133;-84
2023/08/07 04:38:50;;;;;;;3.80;1.02;;;;;;;14.53;84.98;98057.50;5024566;28;20041;-83
2023/08/07 04:41:16;;;;;;;2.63;1.38;;;;;;;14.42;84.84;98046.13;5024952;28;20041;-83
2023/08/07 04:43:45;;;;;;;3.03;1.10;;;;;;;14.54;84.31;98067.19;5023292;28;20048;-83
2023/08/07 04:46:11;;;;;;;1.10;1.00;;;;;;;14.52;84.41;98066.66;5007541;28;20104;-83
2023/08/07 04:48:37;;;;;;;1.95;1.75;;;;;;;14.34;85.01;98054.06;5009193;28;20034;-83
2023/08/07 04:51:03;;;;;;;1.70;1.50;;;;;;;14.57;84.36;98064.69;5006612;28;20041;-84
2023/08/07 04:53:28;;;;;;;2.08;1.40;;;;;;;14.67;84.14;98061.84;5006332;28;20033;-84
2023/08/07 04:55:53;;;;;;;3.00;1.48;;;;;;;14.62;83.93;98064.63;5021093;28;20034;-84
2023/08/07 04:58:19;;;;;;;2.47;1.63;;;;;;;14.51;83.97;98055.13;5005473;28;20105;-84
2023/08/07 05:00:44;;;;;;;2.05;1.85;;;;;;;14.42;84.52;98061.44;5022479;28;20030;-83
2023/08/07 05:03:10;;;;;;;4.07;1.95;;;;;;;14.43;84.62;98066.53;5019312;28;20033;-83
2023/08/07 05:05:35;;;;;;;3.25;1.73;;;;;;;14.43;84.42;98053.13;5009085;28;20051;-83
2023/08/07 05:08:00;;;;;;;2.45;1.67;;;;;;;14.49;83.61;98051.94;5022401;28;20125;-83
2023/08/07 05:10:26;;;;;;;4.05;2.63;;;;;;;14.28;84.84;98046.03;5007995;28;20037;-83
2023/08/07 05:12:57;;;;;;;3.75;2.00;;;;;;;14.53;83.81;98070.94;5042056;28;20104;-83
2023/08/07 05:15:24;;;;;;;2.28;2.00;;;;;;;14.49;84.28;98054.63;5011111;28;20022;-83
2023/08/07 05:17:50;;;;;;;3.30;2.17;;;;;;;14.33;83.90;98033.69;5010085;28;20033;-83
2023/08/07 05:20:16;;;;;;;6.30;2.88;;;;;;;14.43;85.22;98069.22;5002637;28;20037;-84
2023/08/07 05:22:41;;;;;;;3.33;2.83;;;;;;;14.57;84.76;98063.91;5005871;28;20035;-83
2023/08/07 05:25:09;;;;;;;3.55;2.95;;;;;;;14.52;84.56;98069.34;5023076;28;20108;-84
2023/08/07 05:27:34;;;;;;;2.28;2.08;;;;;;;14.51;83.86;98051.63;5028366;28;20434;-84
2023/08/07 05:30:00;;;;;;;5.43;2.60;;;;;;;14.35;84.74;98045.72;5023154;28;20057;-83
2023/08/07 05:32:25;;;;;;;5.88;3.35;;;;;;;14.56;84.20;98079.22;5009750;28;20029;-84
2023/08/07 05:34:51;;;;;;;6.95;3.38;;;;;;;14.52;84.49;98067.47;5025325;28;20026;-84
2023/08/07 05:37:16;;;;;;;4.47;2.90;;;;;;;14.51;85.00;98084.66;4990572;28;20103;-84
2023/08/07 05:39:41;;;;;;;4.10;3.65;;;;;;;14.53;84.50;98087.06;5010250;28;20037;-84
2023/08/07 05:42:08;;;;;;;4.80;3.45;;;;;;;14.49;84.24;98070.75;5007681;28;21051;-84
2023/08/07 05:44:33;;;;;;;6.63;3.75;;;;;;;14.64;84.17;98088.50;5025186;28;20401;-84
2023/08/07 05:46:58;;;;;;;4.93;3.40;;;;;;;14.66;84.18;98091.69;5006787;28;20033;-84
2023/08/07 05:49:24;;;;;;;5.20;3.35;;;;;;;14.64;84.28;98086.59;5027036;28;20515;-83
2023/08/07 05:51:49;;;;;;;4.05;3.13;;;;;;;14.56;85.05;98095.34;5027331;28;20034;-83
2023/08/07 05:54:14;;;;;;;5.10;3.10;;;;;;;14.56;84.79;98087.28;5029399;28;20058;-83
2023/08/07 05:56:40;;;;;;;4.85;3.38;;;;;;;14.56;84.70;98094.53;5027940;28;20052;-83
2023/08/07 05:59:06;;;;;;;4.85;3.22;;;;;;;14.47;84.82;98086.34;5024597;28;20480;-83
2023/08/07 06:01:31;;;;;;;3.72;3.35;;;;;;;14.47;85.25;98090.91;5023998;28;20025;-83
2023/08/07 06:04:00;;;;;;;3.63;3.33;;;;;;;14.51;85.53;98098.09;5005740;28;20050;-82
2023/08/07 06:06:28;;;;;;;3.72;2.63;;;;;;;14.56;85.34;98095.34;5026393;28;20030;-83
2023/08/07 06:08:54;;;;;;;6.38;3.63;;;;;;;14.61;84.68;98095.25;5029385;28;20053;-83
2023/08/07 06:11:19;;;;;;;5.50;3.28;;;;;;;14.64;84.14;98085.81;5027791;28;20033;-83
2023/08/07 06:13:44;;;;;;;4.10;3.33;;;;;;;14.60;85.05;98085.59;5022778;28;20030;-83
2023/08/07 06:16:10;;;;;;;6.95;3.08;;;;;;;14.69;84.72;98101.84;5026539;28;20120;-83
2023/08/07 06:18:36;;;;;;;7.25;3.60;;;;;;;14.73;84.84;98105.53;5007895;28;20025;-83
2023/08/07 06:21:03;;;;;;;3.17;2.88;;;;;;;14.66;85.10;98108.59;5027707;28;20130;-83
2023/08/07 06:23:29;;;;;;;6.55;3.00;;;;;;;14.58;85.41;98090.47;5009642;28;20037;-83
2023/08/07 06:25:55;;;;;;;3.53;2.60;;;;;;;14.78;85.14;98110.84;5025475;28;20485;-83
2023/08/07 06:28:21;;;;;;;3.58;2.38;;;;;;;14.72;85.53;98117.38;5019770;28;20049;-83
2023/08/07 06:30:46;;;;;;;4.20;2.42;;;;;;;14.85;85.21;98122.03;5023380;28;20037;-82
2023/08/07 06:33:11;;;;;;;1.88;1.77;;;;;;;14.71;85.28;98102.34;5025725;28;20048;-83
2023/08/07 06:35:42;;;;;;;3.33;2.30;;;;;;;14.73;84.85;98109.03;5010474;28;20037;-83
2023/08/07 06:38:08;;;;;;;2.10;1.90;;;;;;;14.82;85.03;98109.16;5010994;28;20033;-83
2023/08/07 06:40:35;;;;;;;1.88;1.73;;;;;;;14.81;85.17;98119.09;5028713;28;20028;-84
2023/08/07 06:43:00;;;;;;;3.00;1.83;;;;;;;14.95;85.25;98129.91;5028237;28;20112;-83
2023/08/07 06:45:26;;;;;;;3.15;2.10;;;;;;;15.00;85.29;98122.53;5030879;28;20120;-83
2023/08/07 06:47:51;;;;;;;5.50;2.30;;;;;;;14.85;86.08;98125.47;5027390;28;20036;-82
2023/08/07 06:50:17;;;;;;;1.80;1.67;;;;;;;14.70;86.39;98119.56;5030272;28;20377;-82
2023/08/07 06:52:42;;;;;;;1.38;1.27;;;;;;;14.62;86.79;98115.66;5029727;28;20120;-82
2023/08/07 06:55:07;;;;;;;1.60;1.45;;;;;;;14.68;86.79;98125.22;5026944;28;20056;-81
2023/08/07 06:57:33;;;;;;;1.40;1.30;;;;;;;14.69;86.90;98120.66;5023174;28;20030;-81
2023/08/07 06:59:58;;;;;;;1.60;1.50;;;;;;;14.70;86.99;98128.41;5021246;28;20025;-82
2023/08/07 07:02:23;;;;;;;1.48;1.38;;;;;;;14.68;87.21;98138.66;5006888;28;20132;-82
2023/08/07 07:04:49;;;;;;;1.52;1.40;;;;;;;14.72;86.37;98123.53;5019201;28;20120;-82
2023/08/07 07:07:14;;;;;;;1.25;1.13;;;;;;;14.82;86.41;98136.84;5007034;28;20123;-82
2023/08/07 07:09:40;;;;;;;1.50;1.35;;;;;;;14.81;86.32;98129.84;5021013;28;20033;-82
2023/08/07 07:12:05;;;;;;;1.55;1.45;;;;;;;14.67;86.48;98130.91;4991041;28;20029;-82
2023/08/07 07:14:32;;;;;;;1.70;1.20;;;;;;;14.95;86.32;98144.16;5020633;28;20041;-83
2023/08/07 07:16:57;;;;;;;2.25;1.33;;;;;;;14.79;86.31;98136.59;5025380;28;20493;-82
2023/08/07 07:19:23;;;;;;;1.10;1.10;;;;;;;14.95;85.96;98151.41;5004085;28;20037;-83
2023/08/07 07:21:48;;;;;;;2.47;1.20;;;;;;;14.88;86.64;98154.47;5021062;28;20133;-83
2023/08/07 07:24:14;;;;;;;1.92;1.67;;;;;;;14.77;86.61;98157.59;5018097;28;20037;-83
2023/08/07 07:26:39;;;;;;;1.65;1.33;;;;;;;14.68;87.25;98148.59;5024311;28;20038;-83
2023/08/07 07:29:04;;;;;;;1.17;1.10;;;;;;;14.97;86.35;98159.97;5003831;28;20079;-83
2023/08/07 07:31:30;;;;;;;1.38;1.27;;;;;;;14.84;86.76;98174.16;5024456;28;20489;-83
2023/08/07 07:33:55;;;;;;;1.90;1.15;;;;;;;14.69;86.60;98153.69;5024385;28;20477;-83
2023/08/07 07:36:20;;;;;;;3.83;1.58;;;;;;;14.94;86.39;98155.97;5024575;28;20069;-83
2023/08/07 07:38:47;;;;;;;3.30;1.30;;;;;;;14.93;87.45;98181.25;5024936;28;20029;-83
2023/08/07 07:41:13;;;;;;;1.33;1.23;;;;;;;14.95;86.69;98171.00;5025169;28;20033;-83
2023/08/07 07:43:39;;;;;;;1.77;1.10;;;;;;;15.07;85.81;98173.22;5021892;28;20063;-83
2023/08/07 07:46:04;;;;;;;2.75;1.52;;;;;;;15.16;86.17;98176.06;5003600;28;20054;-83
2023/08/07 07:48:30;;;;;;;1.48;1.30;;;;;;;15.33;85.88;98185.16;5024522;28;20057;-83
2023/08/07 07:51:00;;;;;;;2.67;1.27;;;;;;;15.21;86.23;98186.72;5008929;28;20045;-84
2023/08/07 07:53:26;;;;;;;3.20;1.50;;;;;;;15.32;86.02;98197.03;5023871;28;20127;-84
2023/08/07 07:55:51;;;;;;;1.38;1.27;;;;;;;15.26;85.37;98184.75;5023413;28;20050;-83
2023/08/07 07:58:16;;;;;;;1.60;1.45;;;;;;;15.30;85.45;98193.03;5029730;28;20025;-84
2023/08/07 08:00:42;;;;;;;1.30;1.23;;;;;;;15.31;85.38;98189.25;5026152;28;20367;-83
2023/08/07 08:03:08;;;;;;;1.38;1.20;;;;;;;15.39;85.22;98210.88;5015108;28;20033;-84
2023/08/07 08:05:34;;;;;;;3.75;1.90;;;;;;;15.38;85.49;98208.47;5028477;28;20378;-83
2023/08/07 08:08:01;;;;;;;1.85;1.50;;;;;;;15.50;84.50;98206.16;5026847;28;20037;-84
2023/08/07 08:10:27;;;;;;;2.10;1.45;;;;;;;15.46;84.51;98207.84;5027682;28;20120;-83
2023/08/07 08:12:54;;;;;;;2.08;1.73;;;;;;;15.62;84.04;98209.97;5009843;28;20477;-84
2023/08/07 08:15:19;;;;;;;1.80;1.35;;;;;;;15.75;83.81;98206.50;5009431;28;20057;-83
2023/08/07 08:17:46;;;;;;;1.70;1.60;;;;;;;15.84;83.56;98217.38;4994084;28;20041;-84
2023/08/07 08:20:11;;;;;;;3.30;1.77;;;;;;;15.85;83.67;98218.19;5029007;28;20029;-84
2023/08/07 08:22:36;;;;;;;2.30;1.75;;;;;;;15.84;83.32;98217.38;5027233;28;20030;-83
2023/08/07 08:25:04;;;;;;;3.30;1.85;;;;;;;15.76;84.11;98218.06;5009699;28;20037;-83
2023/08/07 08:27:30;;;;;;;1.73;1.50;;;;;;;15.82;83.68;98214.19;5007990;28;20051;-83
2023/08/07 08:29:55;;;;;;;1.17;1.17;;;;;;;15.94;83.62;98230.66;5010815;28;20029;-83
2023/08/07 08:32:21;;;;;;;1.20;1.10;;;;;;;15.77;83.59;98231.22;5024210;28;20524;-83
2023/08/07 08:34:49;;;;;;;1.13;1.02;;;;;;;15.66;84.03;98218.25;5028550;28;20423;-83
2023/08/07 08:37:14;;;;;;;2.72;1.23;;;;;;;15.79;83.17;98230.94;5025347;28;20049;-83
2023/08/07 08:39:39;;;;;;;2.88;1.10;;;;;;;15.90;83.39;98240.41;5009553;28;20061;-83
2023/08/07 08:42:05;;;;;;;2.20;0.90;;;;;;;15.91;82.67;98243.91;5009223;28;20110;-84
2023/08/07 08:44:34;;;;;;;1.20;1.10;;;;;;;15.76;83.13;98239.59;5027086;28;20045;-84
2023/08/07 08:47:00;;;;;;;1.98;1.00;;;;;;;15.78;83.66;98261.63;5010790;28;20029;-83
2023/08/07 08:49:32;;;;;;;1.92;0.80;;;;;;;15.56;83.50;98240.75;5027160;28;20028;-84
2023/08/07 08:51:58;;;;;;;2.00;1.08;;;;;;;15.57;83.33;98255.78;5022835;28;20037;-83
2023/08/07 08:54:25;;;;;;;0.68;0.68;;;;;;;15.57;83.75;98263.06;5009151;28;20033;-84
2023/08/07 08:56:50;;;;;;;1.88;0.70;;;;;;;15.51;82.91;98253.47;5007544;28;20026;-83
2023/08/07 08:59:18;;;;;;;1.67;0.80;;;;;;;15.51;83.61;98267.72;5026266;28;20112;-84
2023/08/07 09:01:46;;;;;;;1.00;0.70;;;;;;;15.38;83.39;98256.88;5026596;28;20033;-83
2023/08/07 09:04:12;;;;;;;2.13;1.10;;;;;;;15.33;83.61;98259.69;5011948;28;20048;-84
2023/08/07 09:06:37;;;;;;;1.02;1.02;;;;;;;15.60;83.22;98262.47;5028718;28;20022;-84
2023/08/07 09:09:03;;;;;;;1.13;1.00;;;;;;;15.47;84.27;98266.72;5026253;28;20555;-83
2023/08/07 09:11:30;;;;;;;2.25;1.08;;;;;;;15.48;84.99;98267.53;5026801;28;20091;-83
2023/08/07 09:13:55;;;;;;;1.35;0.82;;;;;;;15.50;83.94;98271.53;5022524;28;20041;-85
2023/08/07 09:16:22;;;;;;;2.58;1.05;;;;;;;15.60;84.43;98267.84;5008338;28;20488;-84
2023/08/07 09:18:50;;;;;;;1.52;1.33;;;;;;;15.72;82.94;98271.69;5005122;28;20072;-84
2023/08/07 09:21:16;;;;;;;2.00;1.38;;;;;;;15.74;82.63;98266.00;5028170;28;20025;-83
2023/08/07 09:23:42;;;;;;;2.55;1.38;;;;;;;15.83;82.49;98280.38;5025277;28;20029;-83
2023/08/07 09:26:08;;;;;;;0.95;0.90;;;;;;;15.72;82.86;98269.00;5030651;28;20025;-83
2023/08/07 09:28:34;;;;;;;1.33;1.23;;;;;;;15.73;83.11;98285.91;5008134;28;20033;-83
2023/08/07 09:31:01;;;;;;;1.80;1.17;;;;;;;15.78;82.47;98277.78;5028323;28;20033;-84
2023/08/07 09:33:28;;;;;;;3.65;1.40;;;;;;;15.88;82.53;98284.88;5027784;28;20025;-84
2023/08/07 09:35:58;;;;;;;2.90;2.15;;;;;;;15.97;82.31;98291.16;5025014;28;20033;-83
2023/08/07 09:38:28;;;;;;;1.40;1.25;;;;;;;15.98;82.19;98277.41;5010976;28;20029;-84
2023/08/07 09:40:56;;;;;;;1.55;1.13;;;;;;;15.96;82.10;98282.31;5025090;28;20049;-84
2023/08/07 09:43:22;;;;;;;2.45;1.20;;;;;;;15.98;81.93;98280.09;5023902;28;20057;-84
2023/08/07 09:45:50;;;;;;;1.65;1.38;;;;;;;15.94;83.35;98291.75;5021267;28;20055;-84
2023/08/07 09:48:23;;;;;;;3.72;1.85;;;;;;;16.15;81.93;98296.47;5023411;28;20033;-84
2023/08/07 09:50:49;;;;;;;4.25;1.83;;;;;;;16.23;81.20;98297.66;5026987;28;20025;-84
2023/08/07 09:53:14;;;;;;;3.00;1.40;;;;;;;16.41;80.74;98302.16;5027392;28;20133;-85
2023/08/07 09:55:39;;;;;;;3.33;1.70;;;;;;;16.37;80.57;98283.13;5026317;28;20033;-83
2023/08/07 09:58:08;;;;;;;2.33;1.77;;;;;;;16.36;80.27;98283.41;5012038;28;20203;-83
2023/08/07 10:00:35;;;;;;;5.97;1.85;;;;;;;16.50;80.37;98297.72;5035965;28;20021;-84
2023/08/07 10:03:01;;;;;;;2.33;2.03;;;;;;;16.38;80.31;98287.41;5041764;28;20495;-84
2023/08/07 10:05:27;;;;;;;2.65;1.67;;;;;;;16.31;80.85;98280.84;5023923;28;20021;-83
2023/08/07 10:07:54;;;;;;;2.35;1.60;;;;;;;16.34;81.58;98291.78;5023461;28;20535;-84
2023/08/07 10:10:20;;;;;;;2.25;1.80;;;;;;;16.29;81.48;98283.81;5022494;28;20030;-83
2023/08/07 10:12:47;;;;;;;3.17;1.75;;;;;;;16.42;80.58;98309.94;5027242;28;20036;-84
2023/08/07 10:15:14;;;;;;;3.78;2.28;;;;;;;16.31;81.66;98288.91;5026646;28;20025;-84
2023/08/07 10:17:40;;;;;;;3.22;1.92;;;;;;;16.48;80.84;98305.28;5025234;28;20029;-84
2023/08/07 10:20:07;;;;;;;3.08;2.30;;;;;;;16.49;80.65;98291.50;5026821;28;20091;-83
2023/08/07 10:22:34;;;;;;;3.22;2.30;;;;;;;16.50;79.89;98300.41;5031842;28;20024;-82
2023/08/07 10:25:02;;;;;;;4.93;2.30;;;;;;;16.66;79.95;98306.28;5029115;28;20049;-83
2023/08/07 10:27:34;;;;;;;3.30;2.42;;;;;;;16.63;80.32;98304.19;5027471;28;20037;-84
2023/08/07 10:30:02;;;;;;;2.55;2.22;;;;;;;16.44;82.66;98312.34;5047125;28;20075;-84
2023/08/07 10:32:28;;;;;;;2.92;2.40;;;;;;;16.49;83.35;98304.16;5033821;28;20029;-84
2023/08/07 10:34:53;;;;;;;3.83;2.40;;;;;;;16.39;82.79;98293.59;5027778;28;20041;-84
2023/08/07 10:37:43;;;;;;;3.65;2.50;;;;;;;16.40;83.55;98309.44;5026895;28;20029;-83
2023/08/07 10:40:10;;;;;;;7.35;3.25;;;;;;;16.44;82.60;98299.69;5021692;28;20445;-84
2023/08/07 10:42:54;;;;;;;2.67;2.30;;;;;;;16.61;82.50;98309.88;5028458;28;20029;-84
2023/08/07 10:45:22;;;;;;;2.22;2.00;;;;;;;16.57;82.00;98291.94;5027612;28;20059;-85
2023/08/07 10:48:13;;;;;;;5.53;2.35;;;;;;;16.83;81.70;98317.25;5021943;28;20029;-83
2023/08/07 10:50:53;;;;;;;6.38;2.63;;;;;;;16.91;81.85;98311.13;5023848;28;20034;-84
2023/08/07 10:53:35;;;;;;;2.97;1.75;;;;;;;16.91;80.84;98300.34;5032332;28;20143;-84
2023/08/07 10:56:07;;;;;;;3.47;2.13;;;;;;;17.08;81.10;98311.34;5028562;28;20044;-84
2023/08/07 10:58:40;;;;;;;3.03;1.92;;;;;;;17.19;80.64;98310.78;5002636;28;20034;-83
2023/08/07 11:01:21;;;;;;;3.42;1.92;;;;;;;17.17;80.54;98314.88;5021194;28;20128;-83
2023/08/07 11:04:00;;;;;;;2.55;2.03;;;;;;;17.02;80.17;98301.75;5007299;28;20819;-84
2023/08/07 11:06:31;;;;;;;5.40;2.80;;;;;;;17.17;80.03;98310.28;5022011;28;20026;-84
2023/08/07 11:08:58;;;;;;;4.28;2.33;;;;;;;17.03;78.99;98292.56;5023835;28;20087;-84
2023/08/07 11:11:23;;;;;;;2.00;1.80;;;;;;;17.21;78.81;98316.66;5041034;28;20032;-84
2023/08/07 11:13:49;;;;;;;5.68;2.30;;;;;;;17.12;78.73;98296.91;5025727;28;20029;-83
2023/08/07 11:16:14;;;;;;;5.07;2.22;;;;;;;17.06;79.05;98305.41;5023626;28;20517;-83
2023/08/07 11:18:42;;;;;;;5.43;2.20;;;;;;;17.17;78.85;98312.19;5012776;28;20037;-84
2023/08/07 11:21:12;;;;;;;1.95;1.85;;;;;;;17.49;77.22;98322.78;5028508;28;20033;-83
2023/08/07 11:23:38;;;;;;;4.32;2.17;;;;;;;17.31;78.04;98321.03;5017856;28;20029;-84
2023/08/07 11:26:04;;;;;;;2.67;1.73;;;;;;;17.17;77.36;98312.19;4997359;28;20029;-84
2023/08/07 11:28:29;;;;;;;5.13;2.15;;;;;;;16.80;77.70;98248.56;5027827;28;20029;-84
2023/08/07 11:30:56;;;;;;;4.30;2.13;;;;;;;17.37;76.75;98313.63;5033009;28;20034;-83